sensor_id;sensor_type;location;lat;lon;timestamp;P1;durP1;ratioP1;P2;durP2;ratioP2
3647;SDS011;1840;48.892;15.312;2023-11-21T00:00:50;5.40;;;1.70;;
3647;SDS011;1840;48.892;15.312;2023-11-21T00:03:19;4.60;;;2.03;;
3647;SDS011;1840;48.892;15.312;2023-11-21T00:05:49;2.00;;;1.63;;
3647;SDS011;1840;48.892;15.312;2023-11-21T00:08:18;4.10;;;1.80;;
3647;SDS011;1840;48.892;15.312;2023-11-21T00:10:46;6.27;;;2.00;;
3647;SDS011;1840;48.892;15.312;2023-11-21T00:13:16;5.23;;;1.50;;
3647;SDS011;1840;48.892;15.312;2023-11-21T00:15:45;3.80;;;1.63;;
3647;SDS011;1840;48.892;15.312;2023-11-21T00:18:13;3.90;;;2.00;;
3647;SDS011;1840;48.892;15.312;2023-11-21T00:20:41;4.70;;;1.50;;
3647;SDS011;1840;48.892;15.312;2023-11-21T00:23:09;3.43;;;1.30;;
3647;SDS011;1840;48.892;15.312;2023-11-21T00:25:37;4.80;;;1.90;;
3647;SDS011;1840;48.892;15.312;2023-11-21T00:28:07;5.03;;;1.80;;
3647;SDS011;1840;48.892;15.312;2023-11-21T00:30:36;2.70;;;1.70;;
3647;SDS011;1840;48.892;15.312;2023-11-21T00:33:04;3.60;;;1.90;;
3647;SDS011;1840;48.892;15.312;2023-11-21T00:35:32;7.50;;;2.00;;
3647;SDS011;1840;48.892;15.312;2023-11-21T00:38:01;4.87;;;1.77;;
3647;SDS011;1840;48.892;15.312;2023-11-21T00:40:29;3.47;;;2.03;;
3647;SDS011;1840;48.892;15.312;2023-11-21T00:42:58;2.20;;;1.67;;
3647;SDS011;1840;48.892;15.312;2023-11-21T00:45:27;5.03;;;1.60;;
3647;SDS011;1840;48.892;15.312;2023-11-21T00:47:58;3.47;;;2.13;;
3647;SDS011;1840;48.892;15.312;2023-11-21T00:50:26;4.63;;;1.93;;
3647;SDS011;1840;48.892;15.312;2023-11-21T00:52:54;3.10;;;1.40;;
3647;SDS011;1840;48.892;15.312;2023-11-21T00:55:22;4.23;;;2.37;;
3647;SDS011;1840;48.892;15.312;2023-11-21T00:57:52;5.80;;;2.57;;
3647;SDS011;1840;48.892;15.312;2023-11-21T01:00:20;5.43;;;2.87;;
3647;SDS011;1840;48.892;15.312;2023-11-21T01:02:49;4.40;;;2.50;;
3647;SDS011;1840;48.892;15.312;2023-11-21T01:05:19;6.50;;;1.93;;
3647;SDS011;1840;48.892;15.312;2023-11-21T01:07:47;2.57;;;1.93;;
3647;SDS011;1840;48.892;15.312;2023-11-21T01:10:15;2.63;;;1.80;;
3647;SDS011;1840;48.892;15.312;2023-11-21T01:12:44;2.70;;;1.80;;
3647;SDS011;1840;48.892;15.312;2023-11-21T01:15:12;5.90;;;1.97;;
3647;SDS011;1840;48.892;15.312;2023-11-21T01:17:40;5.53;;;2.00;;
3647;SDS011;1840;48.892;15.312;2023-11-21T01:20:09;4.53;;;1.97;;
3647;SDS011;1840;48.892;15.312;2023-11-21T01:22:41;4.30;;;1.93;;
3647;SDS011;1840;48.892;15.312;2023-11-21T01:25:09;2.60;;;1.70;;
3647;SDS011;1840;48.892;15.312;2023-11-21T01:27:38;11.60;;;2.47;;
3647;SDS011;1840;48.892;15.312;2023-11-21T01:30:06;6.97;;;2.07;;
3647;SDS011;1840;48.892;15.312;2023-11-21T01:32:36;2.50;;;1.60;;
3647;SDS011;1840;48.892;15.312;2023-11-21T01:35:06;3.17;;;2.13;;
3647;SDS011;1840;48.892;15.312;2023-11-21T01:37:36;8.10;;;2.40;;
3647;SDS011;1840;48.892;15.312;2023-11-21T01:40:07;3.70;;;1.40;;
3647;SDS011;1840;48.892;15.312;2023-11-21T01:42:40;5.10;;;2.23;;
3647;SDS011;1840;48.892;15.312;2023-11-21T01:45:10;4.23;;;2.10;;
3647;SDS011;1840;48.892;15.312;2023-11-21T01:47:39;5.17;;;2.03;;
3647;SDS011;1840;48.892;15.312;2023-11-21T01:50:09;6.13;;;1.90;;
3647;SDS011;1840;48.892;15.312;2023-11-21T01:52:43;2.73;;;1.77;;
3647;SDS011;1840;48.892;15.312;2023-11-21T01:55:17;5.17;;;1.77;;
3647;SDS011;1840;48.892;15.312;2023-11-21T01:57:54;3.00;;;2.13;;
3647;SDS011;1840;48.892;15.312;2023-11-21T02:00:22;3.40;;;2.23;;
3647;SDS011;1840;48.892;15.312;2023-11-21T02:02:52;3.33;;;2.27;;
3647;SDS011;1840;48.892;15.312;2023-11-21T02:05:20;4.70;;;1.97;;
3647;SDS011;1840;48.892;15.312;2023-11-21T02:07:48;7.10;;;2.47;;
3647;SDS011;1840;48.892;15.312;2023-11-21T02:10:20;7.67;;;2.03;;
3647;SDS011;1840;48.892;15.312;2023-11-21T02:12:50;5.43;;;1.80;;
3647;SDS011;1840;48.892;15.312;2023-11-21T02:15:18;5.63;;;2.23;;
3647;SDS011;1840;48.892;15.312;2023-11-21T02:17:47;7.13;;;2.10;;
3647;SDS011;1840;48.892;15.312;2023-11-21T02:20:18;2.80;;;1.87;;
3647;SDS011;1840;48.892;15.312;2023-11-21T02:22:50;2.43;;;1.97;;
3647;SDS011;1840;48.892;15.312;2023-11-21T02:25:22;7.30;;;2.20;;
3647;SDS011;1840;48.892;15.312;2023-11-21T02:27:50;5.83;;;1.90;;
3647;SDS011;1840;48.892;15.312;2023-11-21T02:30:18;6.77;;;2.40;;
3647;SDS011;1840;48.892;15.312;2023-11-21T02:32:47;5.03;;;2.47;;
3647;SDS011;1840;48.892;15.312;2023-11-21T02:35:16;8.13;;;3.37;;
3647;SDS011;1840;48.892;15.312;2023-11-21T02:37:44;4.43;;;2.20;;
3647;SDS011;1840;48.892;15.312;2023-11-21T02:40:13;2.97;;;2.20;;
3647;SDS011;1840;48.892;15.312;2023-11-21T02:42:44;6.50;;;2.47;;
3647;SDS011;1840;48.892;15.312;2023-11-21T02:45:14;5.50;;;2.23;;
3647;SDS011;1840;48.892;15.312;2023-11-21T02:47:46;2.70;;;1.83;;
3647;SDS011;1840;48.892;15.312;2023-11-21T02:50:15;3.83;;;1.90;;
3647;SDS011;1840;48.892;15.312;2023-11-21T02:52:45;3.47;;;1.83;;
3647;SDS011;1840;48.892;15.312;2023-11-21T02:55:15;10.17;;;2.53;;
3647;SDS011;1840;48.892;15.312;2023-11-21T02:57:43;5.70;;;2.20;;
3647;SDS011;1840;48.892;15.312;2023-11-21T03:00:11;3.93;;;2.10;;
3647;SDS011;1840;48.892;15.312;2023-11-21T03:02:41;7.60;;;3.17;;
3647;SDS011;1840;48.892;15.312;2023-11-21T03:05:10;5.13;;;2.20;;
3647;SDS011;1840;48.892;15.312;2023-11-21T03:07:38;5.23;;;2.20;;
3647;SDS011;1840;48.892;15.312;2023-11-21T03:10:07;3.80;;;2.10;;
3647;SDS011;1840;48.892;15.312;2023-11-21T03:12:39;11.00;;;2.63;;
3647;SDS011;1840;48.892;15.312;2023-11-21T03:15:09;8.43;;;2.40;;
3647;SDS011;1840;48.892;15.312;2023-11-21T03:17:37;6.50;;;2.40;;
3647;SDS011;1840;48.892;15.312;2023-11-21T03:20:05;4.40;;;2.60;;
3647;SDS011;1840;48.892;15.312;2023-11-21T03:22:38;5.77;;;2.40;;
3647;SDS011;1840;48.892;15.312;2023-11-21T03:25:07;5.90;;;2.13;;
3647;SDS011;1840;48.892;15.312;2023-11-21T03:27:39;3.90;;;2.20;;
3647;SDS011;1840;48.892;15.312;2023-11-21T03:30:08;3.83;;;2.40;;
3647;SDS011;1840;48.892;15.312;2023-11-21T03:32:37;4.83;;;2.30;;
3647;SDS011;1840;48.892;15.312;2023-11-21T03:35:05;6.63;;;2.00;;
3647;SDS011;1840;48.892;15.312;2023-11-21T03:37:34;4.50;;;2.20;;
3647;SDS011;1840;48.892;15.312;2023-11-21T03:40:05;5.73;;;2.90;;
3647;SDS011;1840;48.892;15.312;2023-11-21T03:42:34;4.17;;;2.10;;
3647;SDS011;1840;48.892;15.312;2023-11-21T03:45:04;5.80;;;1.90;;
3647;SDS011;1840;48.892;15.312;2023-11-21T03:47:33;3.93;;;1.97;;
3647;SDS011;1840;48.892;15.312;2023-11-21T03:50:01;3.40;;;2.77;;
3647;SDS011;1840;48.892;15.312;2023-11-21T03:52:30;3.17;;;2.20;;
3647;SDS011;1840;48.892;15.312;2023-11-21T03:54:58;3.20;;;2.03;;
3647;SDS011;1840;48.892;15.312;2023-11-21T03:57:26;3.10;;;2.00;;
3647;SDS011;1840;48.892;15.312;2023-11-21T03:59:55;4.47;;;2.13;;
3647;SDS011;1840;48.892;15.312;2023-11-21T04:02:24;5.80;;;3.63;;
3647;SDS011;1840;48.892;15.312;2023-11-21T04:04:53;6.07;;;2.80;;
3647;SDS011;1840;48.892;15.312;2023-11-21T04:07:23;5.63;;;2.23;;
3647;SDS011;1840;48.892;15.312;2023-11-21T04:09:51;3.20;;;2.40;;
3647;SDS011;1840;48.892;15.312;2023-11-21T04:12:20;10.30;;;3.10;;
3647;SDS011;1840;48.892;15.312;2023-11-21T04:14:48;4.33;;;2.30;;
3647;SDS011;1840;48.892;15.312;2023-11-21T04:17:18;8.63;;;2.80;;
3647;SDS011;1840;48.892;15.312;2023-11-21T04:19:47;2.50;;;2.03;;
3647;SDS011;1840;48.892;15.312;2023-11-21T04:22:16;6.90;;;3.40;;
3647;SDS011;1840;48.892;15.312;2023-11-21T04:24:44;7.13;;;2.83;;
3647;SDS011;1840;48.892;15.312;2023-11-21T04:27:12;5.67;;;2.60;;
3647;SDS011;1840;48.892;15.312;2023-11-21T04:29:40;5.10;;;3.20;;
3647;SDS011;1840;48.892;15.312;2023-11-21T04:32:08;4.90;;;2.67;;
3647;SDS011;1840;48.892;15.312;2023-11-21T04:34:37;8.00;;;2.37;;
3647;SDS011;1840;48.892;15.312;2023-11-21T04:37:06;6.90;;;2.77;;
3647;SDS011;1840;48.892;15.312;2023-11-21T04:39:35;8.97;;;2.83;;
3647;SDS011;1840;48.892;15.312;2023-11-21T04:42:04;6.10;;;3.17;;
3647;SDS011;1840;48.892;15.312;2023-11-21T04:44:32;9.23;;;2.67;;
3647;SDS011;1840;48.892;15.312;2023-11-21T04:47:00;6.70;;;2.77;;
3647;SDS011;1840;48.892;15.312;2023-11-21T04:49:31;4.10;;;2.83;;
3647;SDS011;1840;48.892;15.312;2023-11-21T04:51:59;6.37;;;2.33;;
3647;SDS011;1840;48.892;15.312;2023-11-21T04:54:29;4.10;;;2.80;;
3647;SDS011;1840;48.892;15.312;2023-11-21T04:56:57;8.23;;;3.53;;
3647;SDS011;1840;48.892;15.312;2023-11-21T04:59:26;4.00;;;2.60;;
3647;SDS011;1840;48.892;15.312;2023-11-21T05:01:55;7.80;;;2.70;;
3647;SDS011;1840;48.892;15.312;2023-11-21T05:04:23;3.80;;;2.57;;
3647;SDS011;1840;48.892;15.312;2023-11-21T05:06:52;5.73;;;3.17;;
3647;SDS011;1840;48.892;15.312;2023-11-21T05:09:20;9.00;;;2.50;;
3647;SDS011;1840;48.892;15.312;2023-11-21T05:11:50;9.80;;;2.87;;
3647;SDS011;1840;48.892;15.312;2023-11-21T05:14:19;6.43;;;3.53;;
3647;SDS011;1840;48.892;15.312;2023-11-21T05:16:47;5.33;;;3.10;;
3647;SDS011;1840;48.892;15.312;2023-11-21T05:19:17;5.93;;;2.83;;
3647;SDS011;1840;48.892;15.312;2023-11-21T05:21:45;13.93;;;2.63;;
3647;SDS011;1840;48.892;15.312;2023-11-21T05:24:13;4.13;;;2.60;;
3647;SDS011;1840;48.892;15.312;2023-11-21T05:26:41;3.97;;;2.53;;
3647;SDS011;1840;48.892;15.312;2023-11-21T05:29:11;8.90;;;2.80;;
3647;SDS011;1840;48.892;15.312;2023-11-21T05:31:39;4.13;;;2.60;;
3647;SDS011;1840;48.892;15.312;2023-11-21T05:34:07;13.87;;;3.87;;
3647;SDS011;1840;48.892;15.312;2023-11-21T05:36:35;11.10;;;2.53;;
3647;SDS011;1840;48.892;15.312;2023-11-21T05:39:03;5.10;;;2.80;;
3647;SDS011;1840;48.892;15.312;2023-11-21T05:41:32;9.13;;;2.73;;
3647;SDS011;1840;48.892;15.312;2023-11-21T05:44:03;5.33;;;3.13;;
3647;SDS011;1840;48.892;15.312;2023-11-21T05:46:33;6.47;;;2.83;;
3647;SDS011;1840;48.892;15.312;2023-11-21T05:49:04;6.47;;;2.63;;
3647;SDS011;1840;48.892;15.312;2023-11-21T05:51:34;9.53;;;3.30;;
3647;SDS011;1840;48.892;15.312;2023-11-21T05:54:02;6.63;;;3.97;;
3647;SDS011;1840;48.892;15.312;2023-11-21T05:56:31;10.20;;;5.80;;
3647;SDS011;1840;48.892;15.312;2023-11-21T05:58:59;9.00;;;6.50;;
3647;SDS011;1840;48.892;15.312;2023-11-21T06:01:28;16.03;;;6.17;;
3647;SDS011;1840;48.892;15.312;2023-11-21T06:03:57;10.10;;;5.30;;
3647;SDS011;1840;48.892;15.312;2023-11-21T06:06:26;13.17;;;6.50;;
3647;SDS011;1840;48.892;15.312;2023-11-21T06:08:54;11.00;;;5.90;;
3647;SDS011;1840;48.892;15.312;2023-11-21T06:11:22;8.90;;;4.57;;
3647;SDS011;1840;48.892;15.312;2023-11-21T06:13:51;13.03;;;5.03;;
3647;SDS011;1840;48.892;15.312;2023-11-21T06:16:19;13.70;;;5.53;;
3647;SDS011;1840;48.892;15.312;2023-11-21T06:18:48;13.97;;;5.90;;
3647;SDS011;1840;48.892;15.312;2023-11-21T06:21:17;14.70;;;6.00;;
3647;SDS011;1840;48.892;15.312;2023-11-21T06:23:45;9.80;;;5.40;;
3647;SDS011;1840;48.892;15.312;2023-11-21T06:26:17;14.30;;;6.03;;
3647;SDS011;1840;48.892;15.312;2023-11-21T06:28:47;17.63;;;6.20;;
3647;SDS011;1840;48.892;15.312;2023-11-21T06:31:17;24.20;;;7.77;;
3647;SDS011;1840;48.892;15.312;2023-11-21T06:33:45;19.20;;;13.20;;
3647;SDS011;1840;48.892;15.312;2023-11-21T06:36:14;16.73;;;9.73;;
3647;SDS011;1840;48.892;15.312;2023-11-21T06:38:44;15.53;;;6.63;;
3647;SDS011;1840;48.892;15.312;2023-11-21T06:41:13;25.73;;;6.47;;
3647;SDS011;1840;48.892;15.312;2023-11-21T06:43:42;10.40;;;6.57;;
3647;SDS011;1840;48.892;15.312;2023-11-21T06:46:13;10.03;;;6.30;;
3647;SDS011;1840;48.892;15.312;2023-11-21T06:48:42;13.30;;;5.77;;
3647;SDS011;1840;48.892;15.312;2023-11-21T06:51:10;9.50;;;6.63;;
3647;SDS011;1840;48.892;15.312;2023-11-21T06:53:39;9.13;;;4.90;;
3647;SDS011;1840;48.892;15.312;2023-11-21T06:56:16;16.80;;;6.80;;
3647;SDS011;1840;48.892;15.312;2023-11-21T06:58:44;12.30;;;5.13;;
3647;SDS011;1840;48.892;15.312;2023-11-21T07:01:13;11.13;;;4.93;;
3647;SDS011;1840;48.892;15.312;2023-11-21T07:03:41;10.70;;;4.07;;
3647;SDS011;1840;48.892;15.312;2023-11-21T07:06:09;12.63;;;4.07;;
3647;SDS011;1840;48.892;15.312;2023-11-21T07:08:38;12.63;;;4.70;;
3647;SDS011;1840;48.892;15.312;2023-11-21T07:11:10;10.70;;;4.87;;
3647;SDS011;1840;48.892;15.312;2023-11-21T07:13:39;11.27;;;6.20;;
3647;SDS011;1840;48.892;15.312;2023-11-21T07:16:08;34.93;;;17.73;;
3647;SDS011;1840;48.892;15.312;2023-11-21T07:18:36;47.80;;;24.97;;
3647;SDS011;1840;48.892;15.312;2023-11-21T07:21:05;80.57;;;44.90;;
3647;SDS011;1840;48.892;15.312;2023-11-21T07:23:34;51.87;;;27.50;;
3647;SDS011;1840;48.892;15.312;2023-11-21T07:26:03;18.27;;;9.60;;
3647;SDS011;1840;48.892;15.312;2023-11-21T07:28:35;14.90;;;6.97;;
3647;SDS011;1840;48.892;15.312;2023-11-21T07:31:05;7.87;;;4.70;;
3647;SDS011;1840;48.892;15.312;2023-11-21T07:33:37;8.30;;;3.83;;
3647;SDS011;1840;48.892;15.312;2023-11-21T07:36:05;6.00;;;3.13;;
3647;SDS011;1840;48.892;15.312;2023-11-21T07:38:34;4.40;;;2.83;;
3647;SDS011;1840;48.892;15.312;2023-11-21T07:41:02;6.83;;;3.73;;
3647;SDS011;1840;48.892;15.312;2023-11-21T07:43:36;8.70;;;3.20;;
3647;SDS011;1840;48.892;15.312;2023-11-21T07:46:06;12.77;;;2.93;;
3647;SDS011;1840;48.892;15.312;2023-11-21T07:48:34;11.93;;;3.83;;
3647;SDS011;1840;48.892;15.312;2023-11-21T07:51:02;14.10;;;3.90;;
3647;SDS011;1840;48.892;15.312;2023-11-21T07:53:31;9.70;;;2.87;;
3647;SDS011;1840;48.892;15.312;2023-11-21T07:56:00;6.90;;;3.27;;
3647;SDS011;1840;48.892;15.312;2023-11-21T07:58:30;7.00;;;3.40;;
3647;SDS011;1840;48.892;15.312;2023-11-21T08:00:59;3.90;;;2.80;;
3647;SDS011;1840;48.892;15.312;2023-11-21T08:03:30;12.83;;;2.90;;
3647;SDS011;1840;48.892;15.312;2023-11-21T08:05:59;6.70;;;2.90;;
3647;SDS011;1840;48.892;15.312;2023-11-21T08:08:32;20.67;;;3.20;;
3647;SDS011;1840;48.892;15.312;2023-11-21T08:11:00;7.73;;;2.80;;
3647;SDS011;1840;48.892;15.312;2023-11-21T08:13:30;6.27;;;3.07;;
3647;SDS011;1840;48.892;15.312;2023-11-21T08:15:58;8.87;;;3.73;;
3647;SDS011;1840;48.892;15.312;2023-11-21T08:18:30;5.90;;;2.90;;
3647;SDS011;1840;48.892;15.312;2023-11-21T08:20:58;5.63;;;2.87;;
3647;SDS011;1840;48.892;15.312;2023-11-21T08:23:27;9.90;;;3.10;;
3647;SDS011;1840;48.892;15.312;2023-11-21T08:25:55;8.67;;;3.57;;
3647;SDS011;1840;48.892;15.312;2023-11-21T08:28:23;6.97;;;3.00;;
3647;SDS011;1840;48.892;15.312;2023-11-21T08:30:52;8.97;;;3.47;;
3647;SDS011;1840;48.892;15.312;2023-11-21T08:33:21;9.17;;;4.00;;
3647;SDS011;1840;48.892;15.312;2023-11-21T08:35:50;5.23;;;2.80;;
3647;SDS011;1840;48.892;15.312;2023-11-21T08:38:19;9.90;;;3.93;;
3647;SDS011;1840;48.892;15.312;2023-11-21T08:40:47;6.07;;;2.70;;
3647;SDS011;1840;48.892;15.312;2023-11-21T08:43:15;12.47;;;4.40;;
3647;SDS011;1840;48.892;15.312;2023-11-21T08:45:46;10.80;;;3.63;;
3647;SDS011;1840;48.892;15.312;2023-11-21T08:48:14;6.83;;;2.73;;
3647;SDS011;1840;48.892;15.312;2023-11-21T08:50:42;8.13;;;4.00;;
3647;SDS011;1840;48.892;15.312;2023-11-21T08:53:11;9.97;;;3.60;;
3647;SDS011;1840;48.892;15.312;2023-11-21T08:55:39;10.50;;;2.80;;
3647;SDS011;1840;48.892;15.312;2023-11-21T08:58:08;11.00;;;3.00;;
3647;SDS011;1840;48.892;15.312;2023-11-21T09:00:36;5.50;;;3.27;;
3647;SDS011;1840;48.892;15.312;2023-11-21T09:03:04;9.87;;;3.90;;
3647;SDS011;1840;48.892;15.312;2023-11-21T09:05:37;9.50;;;3.13;;
3647;SDS011;1840;48.892;15.312;2023-11-21T09:08:06;8.63;;;3.47;;
3647;SDS011;1840;48.892;15.312;2023-11-21T09:10:35;8.10;;;3.20;;
3647;SDS011;1840;48.892;15.312;2023-11-21T09:13:03;12.83;;;3.90;;
3647;SDS011;1840;48.892;15.312;2023-11-21T09:15:31;7.20;;;2.90;;
3647;SDS011;1840;48.892;15.312;2023-11-21T09:18:00;5.03;;;2.63;;
3647;SDS011;1840;48.892;15.312;2023-11-21T09:20:28;5.63;;;2.90;;
3647;SDS011;1840;48.892;15.312;2023-11-21T09:22:56;7.37;;;3.37;;
3647;SDS011;1840;48.892;15.312;2023-11-21T09:25:24;3.70;;;2.83;;
3647;SDS011;1840;48.892;15.312;2023-11-21T09:27:54;6.20;;;2.57;;
3647;SDS011;1840;48.892;15.312;2023-11-21T09:30:22;6.50;;;3.07;;
3647;SDS011;1840;48.892;15.312;2023-11-21T09:32:51;30.97;;;5.33;;
3647;SDS011;1840;48.892;15.312;2023-11-21T09:35:19;6.60;;;2.20;;
3647;SDS011;1840;48.892;15.312;2023-11-21T09:37:47;5.43;;;1.83;;
3647;SDS011;1840;48.892;15.312;2023-11-21T09:40:16;3.37;;;1.93;;
3647;SDS011;1840;48.892;15.312;2023-11-21T09:42:50;4.10;;;1.90;;
3647;SDS011;1840;48.892;15.312;2023-11-21T09:45:25;2.90;;;1.67;;
3647;SDS011;1840;48.892;15.312;2023-11-21T09:47:55;3.80;;;2.00;;
3647;SDS011;1840;48.892;15.312;2023-11-21T09:50:24;4.33;;;2.20;;
3647;SDS011;1840;48.892;15.312;2023-11-21T09:53:03;4.20;;;1.70;;
3647;SDS011;1840;48.892;15.312;2023-11-21T09:55:42;4.27;;;1.60;;
3647;SDS011;1840;48.892;15.312;2023-11-21T09:58:12;7.67;;;2.00;;
3647;SDS011;1840;48.892;15.312;2023-11-21T10:00:41;3.27;;;1.70;;
3647;SDS011;1840;48.892;15.312;2023-11-21T10:03:10;3.93;;;2.00;;
3647;SDS011;1840;48.892;15.312;2023-11-21T10:05:40;7.30;;;2.37;;
3647;SDS011;1840;48.892;15.312;2023-11-21T10:08:10;6.03;;;1.83;;
3647;SDS011;1840;48.892;15.312;2023-11-21T10:10:42;10.80;;;1.90;;
3647;SDS011;1840;48.892;15.312;2023-11-21T10:13:13;3.77;;;1.80;;
3647;SDS011;1840;48.892;15.312;2023-11-21T10:15:43;2.80;;;1.90;;
3647;SDS011;1840;48.892;15.312;2023-11-21T10:18:16;5.03;;;1.63;;
3647;SDS011;1840;48.892;15.312;2023-11-21T10:20:45;3.27;;;1.80;;
3647;SDS011;1840;48.892;15.312;2023-11-21T10:23:19;3.97;;;1.60;;
3647;SDS011;1840;48.892;15.312;2023-11-21T10:25:50;3.77;;;1.57;;
3647;SDS011;1840;48.892;15.312;2023-11-21T10:28:21;2.73;;;1.30;;
3647;SDS011;1840;48.892;15.312;2023-11-21T10:30:49;2.70;;;1.70;;
3647;SDS011;1840;48.892;15.312;2023-11-21T10:33:20;6.30;;;1.53;;
3647;SDS011;1840;48.892;15.312;2023-11-21T10:35:55;4.67;;;1.67;;
3647;SDS011;1840;48.892;15.312;2023-11-21T10:38:23;2.60;;;1.40;;
3647;SDS011;1840;48.892;15.312;2023-11-21T10:40:54;11.13;;;2.03;;
3647;SDS011;1840;48.892;15.312;2023-11-21T10:43:25;1.97;;;1.27;;
3647;SDS011;1840;48.892;15.312;2023-11-21T10:45:55;6.40;;;2.00;;
3647;SDS011;1840;48.892;15.312;2023-11-21T10:48:26;7.33;;;2.00;;
3647;SDS011;1840;48.892;15.312;2023-11-21T10:50:54;4.67;;;2.00;;
3647;SDS011;1840;48.892;15.312;2023-11-21T10:53:23;4.17;;;1.57;;
3647;SDS011;1840;48.892;15.312;2023-11-21T10:55:54;3.20;;;1.93;;
3647;SDS011;1840;48.892;15.312;2023-11-21T10:58:31;6.13;;;1.90;;
3647;SDS011;1840;48.892;15.312;2023-11-21T11:01:00;8.30;;;2.50;;
3647;SDS011;1840;48.892;15.312;2023-11-21T11:03:30;6.03;;;2.13;;
3647;SDS011;1840;48.892;15.312;2023-11-21T11:05:59;3.53;;;2.20;;
3647;SDS011;1840;48.892;15.312;2023-11-21T11:08:28;5.23;;;2.07;;
3647;SDS011;1840;48.892;15.312;2023-11-21T11:10:57;9.10;;;2.87;;
3647;SDS011;1840;48.892;15.312;2023-11-21T11:13:25;2.93;;;2.10;;
3647;SDS011;1840;48.892;15.312;2023-11-21T11:15:57;8.93;;;2.20;;
3647;SDS011;1840;48.892;15.312;2023-11-21T11:18:28;3.60;;;2.37;;
3647;SDS011;1840;48.892;15.312;2023-11-21T11:20:58;4.63;;;1.90;;
3647;SDS011;1840;48.892;15.312;2023-11-21T11:23:51;8.53;;;1.80;;
3647;SDS011;1840;48.892;15.312;2023-11-21T11:26:37;3.90;;;1.80;;
3647;SDS011;1840;48.892;15.312;2023-11-21T11:29:14;3.40;;;1.87;;
3647;SDS011;1840;48.892;15.312;2023-11-21T11:31:58;4.20;;;2.03;;
3647;SDS011;1840;48.892;15.312;2023-11-21T11:34:41;3.33;;;2.10;;
3647;SDS011;1840;48.892;15.312;2023-11-21T11:37:16;9.60;;;2.57;;
3647;SDS011;1840;48.892;15.312;2023-11-21T11:39:45;4.67;;;2.13;;
3647;SDS011;1840;48.892;15.312;2023-11-21T11:42:13;3.60;;;1.60;;
3647;SDS011;1840;48.892;15.312;2023-11-21T11:44:53;4.47;;;1.90;;
3647;SDS011;1840;48.892;15.312;2023-11-21T11:47:24;3.10;;;2.00;;
3647;SDS011;1840;48.892;15.312;2023-11-21T11:49:59;4.10;;;1.87;;
3647;SDS011;1840;48.892;15.312;2023-11-21T11:52:37;5.07;;;2.17;;
3647;SDS011;1840;48.892;15.312;2023-11-21T11:55:08;3.87;;;1.70;;
3647;SDS011;1840;48.892;15.312;2023-11-21T11:57:41;2.53;;;1.70;;
3647;SDS011;1840;48.892;15.312;2023-11-21T12:00:10;9.60;;;2.23;;
3647;SDS011;1840;48.892;15.312;2023-11-21T12:02:45;5.00;;;2.30;;
3647;SDS011;1840;48.892;15.312;2023-11-21T12:05:16;2.10;;;1.40;;
3647;SDS011;1840;48.892;15.312;2023-11-21T12:07:46;8.40;;;1.87;;
3647;SDS011;1840;48.892;15.312;2023-11-21T12:13:12;2.77;;;1.90;;
3647;SDS011;1840;48.892;15.312;2023-11-21T12:15:42;3.63;;;2.13;;
3647;SDS011;1840;48.892;15.312;2023-11-21T12:18:17;4.20;;;1.93;;
3647;SDS011;1840;48.892;15.312;2023-11-21T12:20:46;7.33;;;2.00;;
3647;SDS011;1840;48.892;15.312;2023-11-21T12:23:19;4.90;;;1.63;;
3647;SDS011;1840;48.892;15.312;2023-11-21T12:25:47;4.50;;;1.83;;
3647;SDS011;1840;48.892;15.312;2023-11-21T12:28:16;4.17;;;2.47;;
3647;SDS011;1840;48.892;15.312;2023-11-21T12:30:47;4.83;;;2.13;;
3647;SDS011;1840;48.892;15.312;2023-11-21T12:33:18;4.93;;;1.70;;
3647;SDS011;1840;48.892;15.312;2023-11-21T12:35:47;10.50;;;2.87;;
3647;SDS011;1840;48.892;15.312;2023-11-21T12:38:15;4.30;;;1.70;;
3647;SDS011;1840;48.892;15.312;2023-11-21T12:40:48;5.30;;;1.87;;
3647;SDS011;1840;48.892;15.312;2023-11-21T12:43:19;3.60;;;2.10;;
3647;SDS011;1840;48.892;15.312;2023-11-21T12:45:49;2.10;;;1.53;;
3647;SDS011;1840;48.892;15.312;2023-11-21T12:48:20;3.90;;;2.00;;
3647;SDS011;1840;48.892;15.312;2023-11-21T12:50:50;5.17;;;2.20;;
3647;SDS011;1840;48.892;15.312;2023-11-21T12:53:19;3.23;;;2.10;;
3647;SDS011;1840;48.892;15.312;2023-11-21T12:55:49;4.70;;;2.30;;
3647;SDS011;1840;48.892;15.312;2023-11-21T12:58:21;2.77;;;1.90;;
3647;SDS011;1840;48.892;15.312;2023-11-21T13:00:53;4.43;;;2.33;;
3647;SDS011;1840;48.892;15.312;2023-11-21T13:03:24;4.77;;;2.00;;
3647;SDS011;1840;48.892;15.312;2023-11-21T13:05:53;4.47;;;2.30;;
3647;SDS011;1840;48.892;15.312;2023-11-21T13:08:24;5.77;;;2.23;;
3647;SDS011;1840;48.892;15.312;2023-11-21T13:10:55;4.20;;;2.30;;
3647;SDS011;1840;48.892;15.312;2023-11-21T13:13:25;4.30;;;2.13;;
3647;SDS011;1840;48.892;15.312;2023-11-21T13:15:56;3.77;;;1.87;;
3647;SDS011;1840;48.892;15.312;2023-11-21T13:18:28;4.33;;;2.10;;
3647;SDS011;1840;48.892;15.312;2023-11-21T13:20:58;6.40;;;1.90;;
3647;SDS011;1840;48.892;15.312;2023-11-21T13:23:26;8.63;;;2.40;;
3647;SDS011;1840;48.892;15.312;2023-11-21T13:25:55;3.23;;;2.10;;
3647;SDS011;1840;48.892;15.312;2023-11-21T13:28:32;4.63;;;2.23;;
3647;SDS011;1840;48.892;15.312;2023-11-21T13:31:02;2.47;;;2.00;;
3647;SDS011;1840;48.892;15.312;2023-11-21T13:33:48;3.70;;;2.23;;
3647;SDS011;1840;48.892;15.312;2023-11-21T13:36:22;3.70;;;2.33;;
3647;SDS011;1840;48.892;15.312;2023-11-21T13:38:53;2.83;;;1.60;;
3647;SDS011;1840;48.892;15.312;2023-11-21T13:41:22;1.40;;;1.20;;
3647;SDS011;1840;48.892;15.312;2023-11-21T13:43:57;1.20;;;1.00;;
3647;SDS011;1840;48.892;15.312;2023-11-21T13:46:32;2.30;;;1.17;;
3647;SDS011;1840;48.892;15.312;2023-11-21T13:49:07;2.83;;;1.43;;
3647;SDS011;1840;48.892;15.312;2023-11-21T13:51:39;1.63;;;1.30;;
3647;SDS011;1840;48.892;15.312;2023-11-21T13:54:11;4.50;;;1.30;;
3647;SDS011;1840;48.892;15.312;2023-11-21T13:56:39;1.57;;;1.23;;
3647;SDS011;1840;48.892;15.312;2023-11-21T13:59:11;1.60;;;1.23;;
3647;SDS011;1840;48.892;15.312;2023-11-21T14:01:47;1.60;;;1.30;;
3647;SDS011;1840;48.892;15.312;2023-11-21T14:04:23;1.80;;;1.30;;
3647;SDS011;1840;48.892;15.312;2023-11-21T14:07:13;2.27;;;1.40;;
3647;SDS011;1840;48.892;15.312;2023-11-21T14:09:59;4.40;;;1.73;;
3647;SDS011;1840;48.892;15.312;2023-11-21T14:12:27;4.37;;;1.30;;
3647;SDS011;1840;48.892;15.312;2023-11-21T14:15:04;1.80;;;1.23;;
3647;SDS011;1840;48.892;15.312;2023-11-21T14:17:38;1.80;;;1.33;;
3647;SDS011;1840;48.892;15.312;2023-11-21T14:20:09;1.60;;;1.30;;
3647;SDS011;1840;48.892;15.312;2023-11-21T14:22:43;1.90;;;1.33;;
3647;SDS011;1840;48.892;15.312;2023-11-21T14:25:11;2.80;;;1.90;;
3647;SDS011;1840;48.892;15.312;2023-11-21T14:27:40;4.03;;;1.63;;
3647;SDS011;1840;48.892;15.312;2023-11-21T14:30:09;4.20;;;2.30;;
3647;SDS011;1840;48.892;15.312;2023-11-21T14:32:40;4.23;;;2.10;;
3647;SDS011;1840;48.892;15.312;2023-11-21T14:35:10;3.00;;;2.10;;
3647;SDS011;1840;48.892;15.312;2023-11-21T14:37:40;6.83;;;2.10;;
3647;SDS011;1840;48.892;15.312;2023-11-21T14:40:12;3.77;;;2.13;;
3647;SDS011;1840;48.892;15.312;2023-11-21T14:42:45;3.13;;;1.70;;
3647;SDS011;1840;48.892;15.312;2023-11-21T14:45:14;2.80;;;1.40;;
3647;SDS011;1840;48.892;15.312;2023-11-21T14:47:48;3.30;;;2.50;;
3647;SDS011;1840;48.892;15.312;2023-11-21T14:50:22;8.13;;;2.63;;
3647;SDS011;1840;48.892;15.312;2023-11-21T14:53:19;14.53;;;4.17;;
3647;SDS011;1840;48.892;15.312;2023-11-21T14:56:09;39.30;;;5.00;;
3647;SDS011;1840;48.892;15.312;2023-11-21T14:58:37;18.77;;;3.13;;
3647;SDS011;1840;48.892;15.312;2023-11-21T15:01:06;4.03;;;2.07;;
3647;SDS011;1840;48.892;15.312;2023-11-21T15:03:34;10.40;;;2.40;;
3647;SDS011;1840;48.892;15.312;2023-11-21T15:06:17;5.13;;;2.40;;
3647;SDS011;1840;48.892;15.312;2023-11-21T15:08:53;4.37;;;2.57;;
3647;SDS011;1840;48.892;15.312;2023-11-21T15:11:45;10.93;;;3.10;;
3647;SDS011;1840;48.892;15.312;2023-11-21T15:14:13;3.63;;;2.17;;
3647;SDS011;1840;48.892;15.312;2023-11-21T15:16:50;3.50;;;2.50;;
3647;SDS011;1840;48.892;15.312;2023-11-21T15:19:20;7.93;;;3.77;;